Time;durP1;ratioP1;P1;durP2;ratioP2;P2;SDS_P1;SDS_P2;PMS_P1;PMS_P2;Temp;Humidity;BMP_temperature;BMP_pressure;BME280_temperature;BME280_humidity;BME280_pressure;Samples;Min_cycle;Max_cycle;Signal;HPM_P1;HPM_P2
2022/12/18 00:00:29;;;;;;;45.80;19.38;;;-0.20;99.90;;;;;;5032302;28;20032;-77
2022/12/18 00:02:55;;;;;;;45.00;19.42;;;-0.30;99.90;;;;;;5035026;28;20822;-77
2022/12/18 00:05:21;;;;;;;49.65;20.23;;;-0.30;99.90;;;;;;5052450;28;20091;-77
2022/12/18 00:07:46;;;;;;;49.85;20.52;;;-0.40;99.90;;;;;;5036252;28;20029;-76
2022/12/18 00:10:12;;;;;;;47.00;20.15;;;-0.40;99.90;;;;;;5053076;28;20039;-76
2022/12/18 00:12:38;;;;;;;51.17;21.02;;;-0.30;99.90;;;;;;5051726;28;20044;-76
2022/12/18 00:15:04;;;;;;;46.28;19.77;;;-0.40;99.90;;;;;;5027659;28;20026;-76
2022/12/18 00:17:29;;;;;;;45.70;19.45;;;-0.40;99.90;;;;;;5036108;28;20142;-76
2022/12/18 00:19:55;;;;;;;46.22;20.23;;;-0.30;99.90;;;;;;5036599;28;20116;-77
2022/12/18 00:22:20;;;;;;;49.75;20.17;;;-0.30;99.90;;;;;;5034554;28;20033;-77
2022/12/18 00:24:46;;;;;;;47.97;20.17;;;-0.40;99.90;;;;;;5045228;28;20145;-77
2022/12/18 00:27:11;;;;;;;43.88;19.95;;;-0.40;99.90;;;;;;5050379;28;20465;-77
2022/12/18 00:29:40;;;;;;;44.78;19.85;;;-0.40;99.90;;;;;;5038052;28;20494;-77
2022/12/18 00:32:05;;;;;;;46.28;20.70;;;-0.40;99.90;;;;;;5043768;28;20036;-76
2022/12/18 00:34:31;;;;;;;46.10;19.45;;;-0.40;99.90;;;;;;5037396;28;20507;-76
2022/12/18 00:36:56;;;;;;;46.85;20.10;;;-0.40;99.90;;;;;;5060559;28;20033;-76
2022/12/18 00:39:22;;;;;;;50.95;20.00;;;-0.40;99.90;;;;;;5046362;28;20029;-77
2022/12/18 00:44:32;;;;;;;46.30;19.83;;;-0.50;99.90;;;;;;5043028;28;20116;-76
2022/12/18 00:46:58;;;;;;;42.35;18.13;;;-0.50;99.90;;;;;;5054443;28;20140;-77
2022/12/18 00:49:24;;;;;;;43.10;18.88;;;-0.50;99.90;;;;;;5034588;28;20037;-76
2022/12/18 00:51:50;;;;;;;45.95;18.77;;;-0.50;99.90;;;;;;5040199;28;20064;-76
2022/12/18 00:54:16;;;;;;;45.55;18.92;;;-0.50;99.90;;;;;;5050379;28;20116;-76
2022/12/18 00:56:42;;;;;;;41.10;15.68;;;-0.50;99.90;;;;;;5035240;28;20029;-75
2022/12/18 00:59:07;;;;;;;40.83;17.73;;;-0.50;99.90;;;;;;5031090;28;20031;-75
2022/12/18 01:01:33;;;;;;;48.33;19.25;;;-0.50;99.90;;;;;;5040905;28;20033;-76
2022/12/18 01:04:01;;;;;;;47.08;18.90;;;-0.60;99.90;;;;;;5047744;28;20120;-77
2022/12/18 01:06:26;;;;;;;47.67;20.45;;;-0.60;99.90;;;;;;5061834;28;20147;-77
2022/12/18 01:08:52;;;;;;;51.30;18.55;;;-0.60;99.90;;;;;;5050982;28;20116;-77
2022/12/18 01:11:19;;;;;;;49.67;21.17;;;-0.70;99.90;;;;;;5033875;28;20037;-77
2022/12/18 01:13:46;;;;;;;52.35;19.85;;;-0.80;99.90;;;;;;5039202;28;20708;-76
2022/12/18 01:16:13;;;;;;;50.95;19.08;;;-0.80;99.90;;;;;;5045023;28;20032;-77
2022/12/18 01:18:39;;;;;;;47.50;19.48;;;-0.90;99.90;;;;;;5040004;28;20025;-76
2022/12/18 01:21:09;;;;;;;57.63;19.70;;;-0.90;99.90;;;;;;5057059;28;20044;-77
2022/12/18 01:23:34;;;;;;;44.35;17.88;;;-1.00;99.90;;;;;;5040533;28;20711;-77
2022/12/18 01:26:13;;;;;;;46.13;18.02;;;-1.00;99.90;;;;;;5056287;28;20044;-77
2022/12/18 01:28:40;;;;;;;45.53;19.13;;;-1.00;99.90;;;;;;5049838;28;20101;-77
2022/12/18 01:31:19;;;;;;;47.75;18.95;;;-1.00;99.90;;;;;;5044044;28;20438;-77
2022/12/18 01:33:45;;;;;;;52.10;19.30;;;-1.00;99.90;;;;;;5036018;28;20587;-76
2022/12/18 01:36:32;;;;;;;50.55;19.63;;;-1.00;99.90;;;;;;5038385;28;20320;-76
2022/12/18 01:39:05;;;;;;;58.22;20.23;;;-1.00;99.90;;;;;;5043580;28;20037;-77
2022/12/18 01:44:57;;;;;;;51.35;18.40;;;-1.00;99.90;;;;;;5040135;28;20105;-77
2022/12/18 01:47:26;;;;;;;45.40;18.52;;;-1.00;99.90;;;;;;5031594;28;20075;-77
2022/12/18 01:49:53;;;;;;;50.88;19.42;;;-1.10;99.90;;;;;;5037200;28;20781;-77
2022/12/18 01:52:20;;;;;;;50.08;17.05;;;-1.10;99.90;;;;;;5032411;28;20117;-77
2022/12/18 01:54:47;;;;;;;47.92;18.38;;;-1.10;99.90;;;;;;5032853;28;20034;-77
2022/12/18 01:57:12;;;;;;;53.38;18.50;;;-1.10;99.90;;;;;;5042382;28;20060;-77
2022/12/18 01:59:40;;;;;;;52.10;18.20;;;-1.10;99.90;;;;;;5028617;28;20056;-77
2022/12/18 02:02:07;;;;;;;45.10;17.75;;;-1.20;99.90;;;;;;5033435;28;20060;-77
2022/12/18 02:04:33;;;;;;;40.42;17.27;;;-1.20;99.90;;;;;;5030125;28;20053;-76
2022/12/18 02:07:30;;;;;;;44.25;19.10;;;-1.30;99.90;;;;;;5028535;28;20643;-76
2022/12/18 02:10:26;;;;;;;47.88;18.85;;;-1.30;99.90;;;;;;5036077;28;20067;-77
2022/12/18 02:13:26;;;;;;;53.83;18.92;;;-1.30;99.90;;;;;;5029774;28;20048;-77
2022/12/18 02:16:19;;;;;;;50.63;18.80;;;-1.40;99.90;;;;;;5026532;28;20037;-76
2022/12/18 02:18:50;;;;;;;56.88;19.10;;;-1.40;99.90;;;;;;5042384;28;20028;-77
2022/12/18 02:21:28;;;;;;;69.80;25.50;;;-1.50;99.90;;;;;;5042948;28;20090;-76
2022/12/18 02:24:07;;;;;;;68.85;26.35;;;-1.50;99.90;;;;;;5048068;28;20916;-77
2022/12/18 02:26:55;;;;;;;61.28;22.15;;;-1.50;99.90;;;;;;5034916;28;20104;-76
2022/12/18 02:29:22;;;;;;;61.95;24.23;;;-1.50;99.90;;;;;;5035125;28;20036;-76
2022/12/18 02:31:54;;;;;;;46.28;19.20;;;-1.50;99.90;;;;;;5041521;28;20060;-76
2022/12/18 02:34:25;;;;;;;53.88;19.88;;;-1.50;99.90;;;;;;5042026;28;20098;-76
2022/12/18 02:36:54;;;;;;;49.30;18.67;;;-1.40;99.90;;;;;;5039436;28;20024;-76
2022/12/18 02:39:21;;;;;;;52.58;19.15;;;-1.30;99.90;;;;;;5029703;28;20091;-76
2022/12/18 02:41:47;;;;;;;44.92;19.10;;;-1.30;99.90;;;;;;5044687;28;20037;-76
2022/12/18 02:44:14;;;;;;;38.83;16.80;;;-1.30;99.90;;;;;;5037807;28;20501;-76
2022/12/18 02:46:50;;;;;;;43.42;16.70;;;-1.30;99.90;;;;;;5032224;28;20033;-76
2022/12/18 02:49:30;;;;;;;47.75;17.92;;;-1.20;99.90;;;;;;5042445;28;20055;-76
2022/12/18 02:52:14;;;;;;;43.15;16.83;;;-1.20;99.90;;;;;;5054222;28;20502;-76
2022/12/18 02:54:57;;;;;;;45.47;17.42;;;-1.10;99.90;;;;;;5046095;28;20028;-76
2022/12/18 02:57:40;;;;;;;45.17;16.58;;;-1.10;99.90;;;;;;5042274;28;20040;-76
2022/12/18 03:00:14;;;;;;;45.22;16.50;;;-1.20;99.90;;;;;;5047449;28;20036;-77
2022/12/18 03:02:57;;;;;;;34.80;14.27;;;-1.10;99.90;;;;;;5054377;28;20036;-76
2022/12/18 03:05:30;;;;;;;37.85;15.30;;;-1.10;99.90;;;;;;5066134;28;20391;-77
2022/12/18 03:07:57;;;;;;;36.63;14.25;;;-1.10;99.90;;;;;;5039011;28;20091;-76
2022/12/18 03:10:30;;;;;;;36.72;14.23;;;-1.10;99.90;;;;;;5056953;28;20075;-77
2022/12/18 03:13:07;;;;;;;39.60;15.98;;;-1.10;99.90;;;;;;5049166;28;20123;-76
2022/12/18 03:15:41;;;;;;;37.45;15.52;;;-1.00;99.90;;;;;;5031131;28;20032;-77
2022/12/18 03:18:12;;;;;;;31.17;13.63;;;-1.00;99.90;;;;;;5048891;28;20033;-77
2022/12/18 03:20:42;;;;;;;36.63;13.75;;;-1.00;99.90;;;;;;5047445;28;20437;-76
2022/12/18 03:23:20;;;;;;;38.63;15.00;;;-1.00;99.90;;;;;;5043877;28;20033;-76
2022/12/18 03:25:48;;;;;;;35.88;14.05;;;-1.00;99.90;;;;;;5042012;28;20037;-76
2022/12/18 03:28:18;;;;;;;29.08;12.50;;;-1.00;99.90;;;;;;5043973;28;20041;-77
2022/12/18 03:30:47;;;;;;;33.25;13.25;;;-1.00;99.90;;;;;;5048839;28;20036;-76
2022/12/18 03:33:25;;;;;;;33.90;12.07;;;-1.00;99.90;;;;;;5045643;28;20055;-77
2022/12/18 03:35:50;;;;;;;26.95;11.18;;;-0.90;99.90;;;;;;5040820;28;20109;-76
2022/12/18 03:38:16;;;;;;;29.45;12.43;;;-0.90;99.90;;;;;;5044264;28;20119;-77
2022/12/18 03:41:05;;;;;;;27.45;12.43;;;-0.80;99.90;;;;;;5053344;28;20024;-76
2022/12/18 03:43:57;;;;;;;29.15;11.98;;;-0.80;99.90;;;;;;5039227;28;20056;-76
2022/12/18 03:46:30;;;;;;;26.05;10.93;;;-0.70;99.90;;;;;;5034333;28;20029;-77
2022/12/18 03:49:08;;;;;;;30.42;12.07;;;-0.60;99.90;;;;;;5035968;28;20017;-76
2022/12/18 03:52:07;;;;;;;27.67;11.50;;;-0.60;99.90;;;;;;5031862;28;20041;-76
2022/12/18 03:54:35;;;;;;;28.88;11.73;;;-0.50;99.90;;;;;;5043372;28;20601;-76
2022/12/18 03:57:06;;;;;;;25.83;11.23;;;-0.50;99.90;;;;;;5039102;28;20641;-76
2022/12/18 03:59:34;;;;;;;31.05;12.35;;;-0.50;99.90;;;;;;5034868;28;20027;-77
2022/12/18 04:02:03;;;;;;;29.30;11.35;;;-0.50;99.90;;;;;;5031075;28;20095;-76
2022/12/18 04:04:30;;;;;;;31.17;12.45;;;-0.50;99.90;;;;;;5039654;28;20036;-76
2022/12/18 04:06:57;;;;;;;28.88;11.80;;;-0.50;99.90;;;;;;5044101;28;20059;-76
2022/12/18 04:09:23;;;;;;;25.27;11.85;;;-0.40;99.90;;;;;;5040377;28;20029;-76
2022/12/18 04:11:48;;;;;;;27.30;11.40;;;-0.30;99.90;;;;;;5030877;28;20394;-77
2022/12/18 04:14:14;;;;;;;25.02;11.90;;;-0.30;99.90;;;;;;5038605;28;20091;-76
2022/12/18 04:16:39;;;;;;;28.10;10.75;;;-0.30;99.90;;;;;;5037943;28;20036;-76
2022/12/18 04:19:05;;;;;;;26.90;11.93;;;-0.30;99.90;;;;;;5031754;28;20044;-77
2022/12/18 04:21:31;;;;;;;26.55;10.93;;;-0.30;99.90;;;;;;5028214;28;20574;-76
2022/12/18 04:23:57;;;;;;;29.13;11.43;;;-0.40;99.90;;;;;;5042012;28;20040;-76
2022/12/18 04:26:23;;;;;;;23.13;10.95;;;-0.40;99.90;;;;;;5035258;28;20037;-77
2022/12/18 04:28:48;;;;;;;24.90;10.45;;;-0.40;99.90;;;;;;5031554;28;20032;-76
2022/12/18 04:31:14;;;;;;;28.92;11.93;;;-0.40;99.90;;;;;;5032281;28;20033;-76
2022/12/18 04:33:39;;;;;;;19.98;10.13;;;-0.30;99.90;;;;;;5041610;28;20088;-76
2022/12/18 04:36:05;;;;;;;21.98;10.50;;;-0.40;99.90;;;;;;5030466;28;20036;-77
2022/12/18 04:38:31;;;;;;;22.80;10.48;;;-0.30;99.90;;;;;;5052951;28;20064;-76
2022/12/18 04:40:57;;;;;;;23.55;10.52;;;-0.30;99.90;;;;;;5040761;28;20570;-76
2022/12/18 04:43:22;;;;;;;25.55;11.05;;;-0.20;99.90;;;;;;5032901;28;20025;-76
2022/12/18 04:45:48;;;;;;;20.77;9.77;;;-0.10;99.90;;;;;;5037788;28;20029;-76
2022/12/18 04:48:13;;;;;;;22.88;10.35;;;-0.10;99.90;;;;;;5045218;28;20029;-76
2022/12/18 04:50:39;;;;;;;18.02;9.93;;;-0.10;99.90;;;;;;5035220;28;20468;-77
2022/12/18 04:53:05;;;;;;;24.23;10.57;;;-0.10;99.90;;;;;;5033835;28;20511;-76
2022/12/18 04:55:30;;;;;;;23.20;11.52;;;-0.10;99.90;;;;;;5034840;28;20040;-76
2022/12/18 04:57:56;;;;;;;24.20;10.80;;;-0.10;99.90;;;;;;5027195;28;20032;-76
2022/12/18 05:00:21;;;;;;;22.52;10.25;;;0.00;99.90;;;;;;5044496;28;20037;-77
2022/12/18 05:02:47;;;;;;;22.98;10.48;;;0.00;99.90;;;;;;5035189;28;20041;-76
2022/12/18 05:05:13;;;;;;;21.45;10.02;;;0.00;99.90;;;;;;5032560;28;20033;-76
2022/12/18 05:07:39;;;;;;;19.73;9.93;;;0.00;99.90;;;;;;5042504;28;20435;-76
2022/12/18 05:10:05;;;;;;;19.55;9.10;;;0.00;99.90;;;;;;5039187;28;20041;-76
2022/12/18 05:12:31;;;;;;;18.92;9.43;;;0.00;99.90;;;;;;5034689;28;20029;-76
2022/12/18 05:14:57;;;;;;;20.40;9.50;;;0.10;99.90;;;;;;5042046;28;20090;-76
2022/12/18 05:17:22;;;;;;;18.60;9.07;;;0.20;99.90;;;;;;5028201;28;20446;-76
2022/12/18 05:19:48;;;;;;;19.45;9.45;;;0.20;99.90;;;;;;5037370;28;20049;-76
2022/12/18 05:22:13;;;;;;;18.00;9.20;;;0.30;99.90;;;;;;5039769;28;20059;-76
2022/12/18 05:24:39;;;;;;;24.08;9.60;;;0.30;99.90;;;;;;5057866;28;20127;-76
2022/12/18 05:27:05;;;;;;;18.52;8.38;;;0.40;99.90;;;;;;5045696;28;20095;-76
2022/12/18 05:29:30;;;;;;;20.90;9.52;;;0.40;99.90;;;;;;5050656;28;20021;-76
2022/12/18 05:31:56;;;;;;;17.40;8.45;;;0.40;99.90;;;;;;5048472;28;20025;-78
2022/12/18 05:34:21;;;;;;;18.23;8.60;;;0.40;99.90;;;;;;5044730;28;20033;-76
2022/12/18 05:36:47;;;;;;;15.27;8.05;;;0.40;99.90;;;;;;5043352;28;20036;-76
2022/12/18 05:39:12;;;;;;;20.45;8.90;;;0.50;99.90;;;;;;5047575;28;20032;-76
2022/12/18 05:41:38;;;;;;;16.00;8.60;;;0.50;99.90;;;;;;5042822;28;20065;-76
2022/12/18 05:44:04;;;;;;;15.50;8.30;;;0.60;99.90;;;;;;5037743;28;20037;-76
2022/12/18 05:46:30;;;;;;;13.68;6.78;;;0.70;99.90;;;;;;5030886;28;20484;-75
2022/12/18 05:49:00;;;;;;;16.95;8.38;;;0.70;99.90;;;;;;5051147;28;20017;-76
2022/12/18 05:51:27;;;;;;;17.15;7.03;;;0.70;99.90;;;;;;5038990;28;20029;-75
2022/12/18 05:53:52;;;;;;;16.00;8.20;;;0.80;99.90;;;;;;5031455;28;20037;-76
2022/12/18 05:56:20;;;;;;;16.02;7.97;;;0.90;99.90;;;;;;5040264;28;20111;-75
2022/12/18 05:58:47;;;;;;;12.85;7.10;;;0.90;99.90;;;;;;5036630;28;20060;-76
2022/12/18 06:01:16;;;;;;;20.50;8.60;;;1.00;99.90;;;;;;5051237;28;20372;-76
2022/12/18 06:03:42;;;;;;;13.77;7.55;;;1.00;99.90;;;;;;5044914;28;20503;-76
2022/12/18 06:06:22;;;;;;;16.58;7.70;;;1.10;99.90;;;;;;5036806;28;20048;-76
2022/12/18 06:08:49;;;;;;;18.65;8.95;;;1.10;99.90;;;;;;5046974;28;20034;-76
2022/12/18 06:11:18;;;;;;;15.18;7.40;;;1.10;99.90;;;;;;5035726;28;20025;-77
2022/12/18 06:13:44;;;;;;;17.23;8.07;;;1.10;99.90;;;;;;5040949;28;20040;-76
2022/12/18 06:16:10;;;;;;;16.50;7.90;;;1.10;99.90;;;;;;5029184;28;20033;-76
2022/12/18 06:18:36;;;;;;;16.02;7.68;;;1.20;99.90;;;;;;5040319;28;20655;-76
2022/12/18 06:21:01;;;;;;;14.80;7.57;;;1.30;99.90;;;;;;5040685;28;20044;-76
2022/12/18 06:23:27;;;;;;;17.52;7.80;;;1.30;99.90;;;;;;5046144;28;20070;-76
2022/12/18 06:25:53;;;;;;;14.75;7.35;;;1.30;99.90;;;;;;5048104;28;20029;-76
2022/12/18 06:28:19;;;;;;;16.38;7.80;;;1.40;99.90;;;;;;5044833;28;20033;-76
2022/12/18 06:30:46;;;;;;;15.23;7.20;;;1.40;99.90;;;;;;5039337;28;20033;-76
2022/12/18 06:33:12;;;;;;;15.43;7.80;;;1.50;99.90;;;;;;5042812;28;20063;-75
2022/12/18 06:35:38;;;;;;;15.80;7.05;;;1.50;99.90;;;;;;5050062;28;20990;-75
2022/12/18 06:38:04;;;;;;;17.70;8.65;;;1.50;99.90;;;;;;5042504;28;20044;-74
2022/12/18 06:40:31;;;;;;;16.85;8.15;;;1.50;99.90;;;;;;5047862;28;20107;-76
2022/12/18 06:42:56;;;;;;;14.23;7.60;;;1.50;99.90;;;;;;5049180;28;20037;-75
2022/12/18 06:45:22;;;;;;;17.88;7.72;;;1.50;99.90;;;;;;5055402;28;20037;-75
2022/12/18 06:47:47;;;;;;;17.77;7.95;;;1.60;99.90;;;;;;5067452;28;20039;-75
2022/12/18 06:50:13;;;;;;;14.30;7.30;;;1.70;99.90;;;;;;5036959;28;20498;-75
2022/12/18 06:52:40;;;;;;;16.55;8.43;;;1.70;99.90;;;;;;5043688;28;20074;-75
2022/12/18 06:55:07;;;;;;;14.35;7.40;;;1.80;99.90;;;;;;5060175;28;20027;-75
2022/12/18 06:57:33;;;;;;;18.20;8.27;;;1.90;99.90;;;;;;5062767;28;20025;-76
2022/12/18 06:59:59;;;;;;;16.88;8.18;;;1.90;99.90;;;;;;5066092;28;20884;-76
2022/12/18 07:02:24;;;;;;;16.20;8.20;;;2.00;99.90;;;;;;5047728;28;20040;-76
2022/12/18 07:04:50;;;;;;;18.27;8.55;;;2.00;99.90;;;;;;5045581;28;20025;-76
2022/12/18 07:07:16;;;;;;;16.88;8.48;;;2.10;99.90;;;;;;5040252;28;20037;-75
2022/12/18 07:09:41;;;;;;;17.80;8.00;;;2.20;99.90;;;;;;5039097;28;20037;-75
2022/12/18 07:12:07;;;;;;;15.90;8.10;;;2.30;99.90;;;;;;5034829;28;20037;-75
2022/12/18 07:14:33;;;;;;;15.82;7.65;;;2.40;99.90;;;;;;5029883;28;20025;-75
2022/12/18 07:16:59;;;;;;;16.20;7.90;;;2.60;99.90;;;;;;5042590;28;20120;-76
2022/12/18 07:19:25;;;;;;;17.90;8.57;;;2.60;99.90;;;;;;5047868;28;20039;-76
2022/12/18 07:21:51;;;;;;;16.30;7.82;;;2.60;99.90;;;;;;5060927;28;20376;-76
2022/12/18 07:24:17;;;;;;;15.75;8.40;;;2.70;99.90;;;;;;5047183;28;20029;-76
2022/12/18 07:26:45;;;;;;;14.93;7.70;;;2.70;99.90;;;;;;5031344;28;20041;-76
2022/12/18 07:29:10;;;;;;;19.58;9.35;;;2.70;99.90;;;;;;5037240;28;20028;-76
2022/12/18 07:31:36;;;;;;;19.73;8.40;;;2.70;99.90;;;;;;5041168;28;20044;-76
2022/12/18 07:34:01;;;;;;;16.55;8.40;;;2.80;99.90;;;;;;5043828;28;20140;-75
2022/12/18 07:36:27;;;;;;;16.13;8.02;;;2.80;99.90;;;;;;5036596;28;20045;-76
2022/12/18 07:38:53;;;;;;;17.65;8.50;;;2.90;99.90;;;;;;5034363;28;20061;-76
2022/12/18 07:41:19;;;;;;;16.45;8.15;;;3.00;99.90;;;;;;5031658;28;20033;-76
2022/12/18 07:43:44;;;;;;;16.42;8.65;;;3.00;99.90;;;;;;5032480;28;20021;-76
2022/12/18 07:46:13;;;;;;;17.60;9.38;;;3.10;99.90;;;;;;5040458;28;20037;-76
2022/12/18 07:48:40;;;;;;;14.60;7.97;;;3.10;99.90;;;;;;5039645;28;20025;-75
2022/12/18 07:51:07;;;;;;;17.42;9.45;;;3.20;99.90;;;;;;5031549;28;20463;-76
2022/12/18 07:53:34;;;;;;;18.52;9.48;;;3.30;99.90;;;;;;5041719;28;20033;-76
2022/12/18 07:56:03;;;;;;;23.23;12.30;;;3.30;99.90;;;;;;5041223;28;20033;-76
2022/12/18 07:58:29;;;;;;;21.00;11.35;;;3.40;99.90;;;;;;5038830;28;20036;-77
2022/12/18 08:01:03;;;;;;;38.20;16.70;;;3.30;99.90;;;;;;5040240;28;20056;-75
2022/12/18 08:03:28;;;;;;;42.33;16.58;;;3.40;99.90;;;;;;5033157;28;20033;-76
2022/12/18 08:05:59;;;;;;;40.75;18.60;;;3.40;99.90;;;;;;5041882;28;20090;-76
2022/12/18 08:08:24;;;;;;;30.13;13.35;;;3.40;99.90;;;;;;5037900;28;20017;-75
2022/12/18 08:10:50;;;;;;;28.13;13.48;;;3.40;99.90;;;;;;5045643;28;20037;-76
2022/12/18 08:13:15;;;;;;;35.75;15.40;;;3.40;99.90;;;;;;5044694;28;20072;-76
2022/12/18 08:15:41;;;;;;;34.20;14.70;;;3.40;99.90;;;;;;5050812;28;20491;-77
2022/12/18 08:18:06;;;;;;;22.13;12.13;;;3.40;99.90;;;;;;5057030;28;20032;-76
2022/12/18 08:20:32;;;;;;;24.05;12.48;;;3.50;99.90;;;;;;5048562;28;20037;-75
2022/12/18 08:22:58;;;;;;;24.98;12.27;;;3.50;99.90;;;;;;5049886;28;20089;-77
2022/12/18 08:25:23;;;;;;;28.63;13.00;;;3.50;99.90;;;;;;5047665;28;20072;-76
2022/12/18 08:27:49;;;;;;;27.58;12.52;;;3.60;99.90;;;;;;5035668;28;20030;-77
2022/12/18 08:30:14;;;;;;;24.50;12.48;;;3.60;99.90;;;;;;5039326;28;20059;-77
2022/12/18 08:32:40;;;;;;;26.92;15.02;;;3.50;99.90;;;;;;5054919;28;20037;-76
2022/12/18 08:35:07;;;;;;;29.40;15.75;;;3.60;99.90;;;;;;5044830;28;20020;-77
2022/12/18 08:37:33;;;;;;;28.88;14.93;;;3.50;99.90;;;;;;5044337;28;20021;-76
2022/12/18 08:39:59;;;;;;;29.40;15.63;;;3.50;99.90;;;;;;5051306;28;20047;-77
2022/12/18 08:45:09;;;;;;;26.55;12.90;;;3.40;99.90;;;;;;5035648;28;20040;-76
2022/12/18 08:47:34;;;;;;;21.38;12.48;;;3.40;99.90;;;;;;5042653;28;20275;-76
2022/12/18 08:50:00;;;;;;;27.15;13.73;;;3.40;99.90;;;;;;5036083;28;20025;-76
2022/12/18 08:52:26;;;;;;;24.85;13.63;;;3.40;99.90;;;;;;5039396;28;20101;-77
2022/12/18 08:54:51;;;;;;;23.20;13.15;;;3.40;99.90;;;;;;5032585;28;20106;-76
2022/12/18 08:57:17;;;;;;;24.95;13.20;;;3.40;99.90;;;;;;5037075;28;20483;-76
2022/12/18 08:59:42;;;;;;;24.52;12.77;;;3.40;99.90;;;;;;5034830;28;20114;-77
2022/12/18 09:02:10;;;;;;;24.10;12.65;;;3.40;99.90;;;;;;5032657;28;20040;-77
2022/12/18 09:04:36;;;;;;;24.20;12.65;;;3.40;99.90;;;;;;5040609;28;20563;-77
2022/12/18 09:07:01;;;;;;;24.30;13.00;;;3.40;99.90;;;;;;5032839;28;20124;-76
2022/12/18 09:09:27;;;;;;;29.20;14.07;;;3.50;99.90;;;;;;5038920;28;20033;-76
2022/12/18 09:11:52;;;;;;;28.77;13.73;;;3.50;99.90;;;;;;5061885;28;20087;-77
2022/12/18 09:14:18;;;;;;;25.55;13.70;;;3.50;99.90;;;;;;5034309;28;20036;-77
2022/12/18 09:16:44;;;;;;;26.73;15.00;;;3.50;99.90;;;;;;5040972;28;20036;-78
2022/12/18 09:19:10;;;;;;;23.42;14.35;;;3.50;99.90;;;;;;5039752;28;20060;-77
2022/12/18 09:21:35;;;;;;;26.63;14.07;;;3.50;99.90;;;;;;5035524;28;20194;-78
2022/12/18 09:24:01;;;;;;;27.90;14.15;;;3.50;99.90;;;;;;5038059;28;20606;-78
2022/12/18 09:26:27;;;;;;;25.92;14.13;;;3.50;99.90;;;;;;5040487;28;20068;-78
2022/12/18 09:28:53;;;;;;;25.40;13.48;;;3.50;99.90;;;;;;5035003;28;20029;-77
2022/12/18 09:31:21;;;;;;;27.27;14.50;;;3.60;99.90;;;;;;5033552;28;20518;-78
2022/12/18 09:33:47;;;;;;;25.42;13.80;;;3.60;99.90;;;;;;5034547;28;20037;-79
2022/12/18 09:36:14;;;;;;;26.02;14.52;;;3.70;99.90;;;;;;5035205;28;20403;-77
2022/12/18 09:38:41;;;;;;;28.38;14.32;;;3.70;99.90;;;;;;5050586;28;20135;-77
2022/12/18 09:41:25;;;;;;;27.80;15.35;;;3.70;99.90;;;;;;5034900;28;20044;-78
2022/12/18 09:43:57;;;;;;;28.95;15.45;;;3.70;99.90;;;;;;5028920;28;20071;-76
2022/12/18 09:46:30;;;;;;;31.45;16.05;;;3.70;99.90;;;;;;5041548;28;20094;-79
2022/12/18 09:49:00;;;;;;;33.40;15.52;;;3.80;99.90;;;;;;5033837;28;20128;-79
2022/12/18 09:51:36;;;;;;;28.38;15.60;;;3.80;99.90;;;;;;5034988;28;20037;-78
2022/12/18 09:54:06;;;;;;;29.42;15.25;;;3.90;99.90;;;;;;5047185;28;20056;-78
2022/12/18 09:56:35;;;;;;;;;;;3.80;99.90;;;;;;5053620;28;20066;-79
2022/12/18 09:59:03;;;;;;;29.33;16.35;;;3.90;99.90;;;;;;5047573;28;19946;-78
2022/12/18 10:01:30;;;;;;;26.35;13.93;;;3.90;99.90;;;;;;5029837;28;20040;-80
2022/12/18 10:03:56;;;;;;;30.13;15.88;;;4.00;99.90;;;;;;5040984;28;20045;-80
2022/12/18 10:06:30;;;;;;;29.42;16.10;;;4.00;99.90;;;;;;5036691;28;20033;-77
2022/12/18 10:08:59;;;;;;;29.40;16.73;;;3.90;99.90;;;;;;5034804;28;20025;-79
2022/12/18 10:11:45;;;;;;;29.35;16.13;;;4.00;99.90;;;;;;5039848;28;20041;-79
2022/12/18 10:14:25;;;;;;;31.65;15.93;;;4.00;99.90;;;;;;5042793;28;20028;-80
2022/12/18 10:17:02;;;;;;;32.65;17.85;;;3.90;99.90;;;;;;5034189;28;20175;-76
2022/12/18 10:19:39;;;;;;;32.95;17.20;;;4.00;99.90;;;;;;5036737;28;20030;-80
2022/12/18 10:22:23;;;;;;;29.85;16.73;;;4.00;99.90;;;;;;5057681;28;20399;-79
2022/12/18 10:25:07;;;;;;;31.15;17.45;;;4.00;99.90;;;;;;5049521;28;20029;-79
2022/12/18 10:27:33;;;;;;;30.05;16.67;;;3.90;99.90;;;;;;5035921;28;20437;-78
2022/12/18 10:30:01;;;;;;;29.13;16.83;;;3.90;99.90;;;;;;5027016;28;20475;-79
2022/12/18 10:32:29;;;;;;;33.90;17.65;;;3.90;99.90;;;;;;5036269;28;20055;-79
2022/12/18 10:34:57;;;;;;;28.05;16.00;;;3.90;99.90;;;;;;5038623;28;20033;-78
2022/12/18 10:37:28;;;;;;;30.85;16.92;;;4.00;99.90;;;;;;5039363;28;20544;-79
2022/12/18 10:40:15;;;;;;;32.90;16.30;;;3.90;99.90;;;;;;5032360;28;20052;-78
2022/12/18 10:42:41;;;;;;;31.27;16.75;;;4.00;99.90;;;;;;5031503;28;20037;-78
2022/12/18 10:45:19;;;;;;;26.75;15.07;;;4.00;99.90;;;;;;5057553;28;20040;-78
2022/12/18 10:47:48;;;;;;;32.47;16.88;;;4.00;99.90;;;;;;5036655;28;20572;-78
2022/12/18 10:50:32;;;;;;;26.73;15.50;;;4.10;99.90;;;;;;5048255;28;20098;-78
2022/12/18 10:53:03;;;;;;;31.08;16.30;;;4.00;99.90;;;;;;5043172;28;20158;-79
2022/12/18 10:55:39;;;;;;;37.22;19.23;;;4.00;99.90;;;;;;5046259;28;20531;-79
2022/12/18 10:58:29;;;;;;;31.05;16.73;;;4.00;99.90;;;;;;5042377;28;20099;-78
2022/12/18 11:01:19;;;;;;;31.58;16.33;;;3.90;99.90;;;;;;5062773;28;20048;-77
2022/12/18 11:03:54;;;;;;;30.02;17.52;;;3.90;99.90;;;;;;5039904;28;20086;-78
2022/12/18 11:06:24;;;;;;;32.72;17.92;;;3.90;99.90;;;;;;5037310;28;20117;-78
2022/12/18 11:09:19;;;;;;;28.55;17.42;;;3.90;99.90;;;;;;5040130;28;20116;-77
2022/12/18 11:11:54;;;;;;;34.38;17.90;;;3.90;99.90;;;;;;5034625;28;20044;-78
2022/12/18 11:14:27;;;;;;;31.80;17.30;;;3.90;99.90;;;;;;5036544;28;20744;-76
2022/12/18 11:16:55;;;;;;;29.58;16.27;;;3.90;99.90;;;;;;5041246;28;20514;-78
2022/12/18 11:19:29;;;;;;;32.28;17.15;;;3.90;99.90;;;;;;5038379;28;20491;-76
2022/12/18 11:21:56;;;;;;;30.38;17.70;;;3.90;99.90;;;;;;5044573;28;20029;-76
2022/12/18 11:24:31;;;;;;;35.13;18.48;;;3.80;99.90;;;;;;5042391;28;20021;-77
2022/12/18 11:27:03;;;;;;;33.15;18.05;;;3.80;99.90;;;;;;5047458;28;20040;-78
2022/12/18 11:29:35;;;;;;;33.78;18.15;;;3.80;99.90;;;;;;5034540;28;20029;-79
2022/12/18 11:32:26;;;;;;;38.45;20.25;;;3.90;99.90;;;;;;5042154;28;20388;-76
2022/12/18 11:35:00;;;;;;;39.45;19.77;;;4.00;99.90;;;;;;5037561;28;20036;-76
2022/12/18 11:37:26;;;;;;;33.92;19.10;;;4.10;99.90;;;;;;5059738;28;20024;-77
2022/12/18 11:40:17;;;;;;;38.38;19.52;;;4.10;99.90;;;;;;5041876;28;20033;-76
2022/12/18 11:42:54;;;;;;;37.03;19.30;;;4.00;99.90;;;;;;5073378;28;20487;-76
2022/12/18 11:45:27;;;;;;;37.70;19.15;;;4.10;99.90;;;;;;5047904;28;20033;-76
2022/12/18 11:48:02;;;;;;;37.83;18.63;;;4.10;99.90;;;;;;5067623;28;20040;-76
2022/12/18 11:50:56;;;;;;;36.22;19.80;;;4.00;99.90;;;;;;5045646;28;20036;-76
2022/12/18 11:53:24;;;;;;;42.92;20.48;;;4.00;99.90;;;;;;5033916;28;20028;-75
2022/12/18 11:55:59;;;;;;;39.28;20.30;;;4.00;99.90;;;;;;5039117;28;20032;-75
2022/12/18 11:58:55;;;;;;;42.90;20.15;;;4.00;99.90;;;;;;5053508;28;20063;-76
2022/12/18 12:01:50;;;;;;;40.33;20.33;;;3.90;99.90;;;;;;5042822;28;20037;-76
2022/12/18 12:04:34;;;;;;;43.55;22.15;;;3.90;99.90;;;;;;5040734;28;20028;-76
2022/12/18 12:07:30;;;;;;;42.50;21.20;;;3.90;99.90;;;;;;5048923;28;20047;-75
2022/12/18 12:10:13;;;;;;;45.00;21.67;;;4.00;99.90;;;;;;5045189;28;20158;-75
2022/12/18 12:13:08;;;;;;;37.22;20.10;;;4.00;99.90;;;;;;5047874;28;20033;-76
2022/12/18 12:15:54;;;;;;;38.42;20.02;;;4.00;99.90;;;;;;5048035;28;20024;-76
2022/12/18 12:18:39;;;;;;;39.42;18.85;;;4.10;99.90;;;;;;5037506;28;20030;-75
2022/12/18 12:21:28;;;;;;;39.20;20.83;;;4.10;99.90;;;;;;5042851;28;20566;-76
2022/12/18 12:24:09;;;;;;;37.60;19.20;;;4.10;99.90;;;;;;5028433;28;20037;-76
2022/12/18 12:27:16;;;;;;;37.35;20.17;;;4.10;99.90;;;;;;5028149;28;20757;-75
2022/12/18 12:29:54;;;;;;;40.20;21.80;;;4.10;99.90;;;;;;5028292;28;20472;-75
2022/12/18 12:32:44;;;;;;;43.88;21.27;;;4.10;99.90;;;;;;5026935;28;20454;-75
2022/12/18 12:35:40;;;;;;;44.58;20.98;;;4.10;99.90;;;;;;5025673;28;20517;-75
2022/12/18 12:38:12;;;;;;;36.30;19.15;;;4.10;99.90;;;;;;5027189;28;20029;-76
2022/12/18 12:41:04;;;;;;;40.50;20.73;;;4.10;99.90;;;;;;5038749;28;20083;-76
2022/12/18 12:43:44;;;;;;;34.85;17.45;;;4.10;99.90;;;;;;5044884;28;20036;-76
2022/12/18 12:46:13;;;;;;;31.48;17.98;;;4.10;99.90;;;;;;5047087;28;20479;-76
2022/12/18 12:48:53;;;;;;;35.92;17.65;;;4.20;99.90;;;;;;5040072;28;20045;-76
2022/12/18 12:51:26;;;;;;;38.75;17.65;;;4.10;99.90;;;;;;5026387;28;20056;-76
2022/12/18 12:53:53;;;;;;;35.28;17.80;;;4.20;99.90;;;;;;5026215;28;20033;-75
2022/12/18 12:56:20;;;;;;;32.97;17.42;;;4.10;99.90;;;;;;5025807;28;20098;-77
2022/12/18 12:59:04;;;;;;;30.75;17.27;;;4.10;99.90;;;;;;5032912;28;20057;-76
2022/12/18 13:01:59;;;;;;;30.05;16.60;;;4.10;99.90;;;;;;5025219;28;20037;-76